Burns, OR

9:13 PM PDT on August 30, 2014 (GMT -0700)
Burns Municipal | Change Station
CLOSE
Current Station
Airport
Location: Burns,
Elevation: 4170 ft
Nearby Weather Stations

Elev 4170 ft 43.60 °N, 118.96 °W | Updated 20 minutes ago

Mostly Cloudy
Mostly Cloudy
54 °F
Feels Like 54 °F
N
6
Wind Variable Wind from NNW

Today
High -- | Low -- °F
--% Chance of Precip.
Yesterday
High -- | Low -- °F
Precip. -- in
6:16 AM 7:33 PM
Waxing Crescent, 27% visible
Pressure 29.95 in
Visibility 10.0 miles
Clouds Mostly Cloudy 8000 ft
Mostly Cloudy 9000 ft
Dew Point 47 °F
Humidity 77%
Rainfall 0.02 in
Snow Depth Not available.
UV 0 out of 12
Pollen 6.10 out of 12
Air Quality Not available.
Flu Activity Not available.
METAR KBNO 310353Z AUTO 33005KT 10SM BKN080 BKN090 12/08 A3001 RMK AO2 SLP141 T01220083

More Conditions Fewer Conditions

Pressure 29.95 in
Visibility 10.0 miles
Clouds Mostly Cloudy 8000 ft
Mostly Cloudy 9000 ft
Dew Point 47 °F
Humidity 77%
Rainfall 0.02 in
Snow Depth Not available.
UV 0 out of 12
Pollen 6.10 out of 12
Air Quality Not available.
Flu Activity Not available.
METAR KBNO 310353Z AUTO 33005KT 10SM BKN080 BKN090 12/08 A3001 RMK AO2 SLP141 T01220083

More Conditions Fewer Conditions

10-Day Weather Forecast

Almanac

Astronomy

Aug. 30, 2014 Rise Set
Actual Time 6:16 AM PDT 7:33 PM PDT
Civil Twilight 5:47 AM PDT 8:03 PM PDT
Nautical Twilight 5:11 AM PDT 8:38 PM PDT
Astronomical Twilight 4:33 AM PDT 9:16 PM PDT
Moon 11:18 AM PDT (8/30) 10:00 PM PDT (8/30)
Length of Visible Light 14h 16m
Length of Day
13h 16m
Tomorrow will be 2m 51s shorter.
Waxing Crescent, 27% of the Moon is Illuminated
Aug 31
Waxing Crescent
Sep 2
First Quarter
Sep 8
Full
Sep 15
Last Quarter
Sep 24
New

Today's Extremes

State Highs State Lows

Community

WunderPhotos

Upload Photos

1,748,779 photos uploaded!

Nearby

Snow Depth

Station Depth Elevation
Rock Springs 0 in 5550 ft
Lake Creek R.S. 0 in 5200 ft
Snow Mountain 0 in 6220 ft
Blue Mountain Spring 0 in 5900 ft
Fish Creek 0 in 7900 ft

Earthquake Activity

City Distance Mag. Time & Date
Lakeview, Oregon 121 miles 2.8 3:14 PM PDT
2014-08-29
Lakeview, Oregon 122 miles 2.7 2:21 PM PDT
2014-08-29
Lakeview, Oregon 121 miles 3.0 10:47 AM PDT
2014-08-29
Lakeview, Oregon 122 miles 2.5 5:31 AM PDT
2014-08-29
Minimum magnitude displayed is 2.5.

Coastal Water Temperatures

Place Temperature
No Stations Reporting

Nearby Weather Stations